sensor_id;sensor_type;location;lat;lon;timestamp;P1;durP1;ratioP1;P2;durP2;ratioP2
18217;SDS011;9234;49.344;11.120;2023-02-24T00:01:53;24.20;;;18.80;;
18217;SDS011;9234;49.344;11.120;2023-02-24T00:04:27;26.63;;;19.77;;
18217;SDS011;9234;49.344;11.120;2023-02-24T00:06:58;24.53;;;18.63;;
18217;SDS011;9234;49.344;11.120;2023-02-24T00:09:27;24.23;;;17.37;;
18217;SDS011;9234;49.344;11.120;2023-02-24T00:11:59;25.77;;;19.80;;
18217;SDS011;9234;49.344;11.120;2023-02-24T00:14:36;26.27;;;19.03;;
18217;SDS011;9234;49.344;11.120;2023-02-24T00:17:07;26.20;;;17.55;;
18217;SDS011;9234;49.344;11.120;2023-02-24T00:19:37;23.80;;;18.17;;
18217;SDS011;9234;49.344;11.120;2023-02-24T00:22:06;22.73;;;17.47;;
18217;SDS011;9234;49.344;11.120;2023-02-24T00:24:37;25.87;;;18.03;;
18217;SDS011;9234;49.344;11.120;2023-02-24T00:27:05;24.08;;;17.08;;
18217;SDS011;9234;49.344;11.120;2023-02-24T00:29:36;23.20;;;16.23;;
18217;SDS011;9234;49.344;11.120;2023-02-24T00:32:07;20.55;;;16.65;;
18217;SDS011;9234;49.344;11.120;2023-02-24T00:34:38;20.13;;;16.23;;
18217;SDS011;9234;49.344;11.120;2023-02-24T00:37:07;22.67;;;17.23;;
18217;SDS011;9234;49.344;11.120;2023-02-24T00:39:37;24.73;;;17.47;;
18217;SDS011;9234;49.344;11.120;2023-02-24T00:42:08;23.83;;;18.07;;
18217;SDS011;9234;49.344;11.120;2023-02-24T00:44:38;22.73;;;16.53;;
18217;SDS011;9234;49.344;11.120;2023-02-24T00:47:10;22.47;;;16.53;;
18217;SDS011;9234;49.344;11.120;2023-02-24T00:49:41;21.75;;;16.20;;
18217;SDS011;9234;49.344;11.120;2023-02-24T00:52:11;24.23;;;16.25;;
18217;SDS011;9234;49.344;11.120;2023-02-24T00:54:43;22.03;;;16.70;;
18217;SDS011;9234;49.344;11.120;2023-02-24T00:57:13;20.50;;;16.45;;
18217;SDS011;9234;49.344;11.120;2023-02-24T00:59:43;21.77;;;16.60;;
18217;SDS011;9234;49.344;11.120;2023-02-24T01:02:13;22.52;;;16.80;;
18217;SDS011;9234;49.344;11.120;2023-02-24T01:04:43;21.52;;;17.00;;
18217;SDS011;9234;49.344;11.120;2023-02-24T01:07:12;21.52;;;16.73;;
18217;SDS011;9234;49.344;11.120;2023-02-24T01:09:41;21.70;;;16.75;;
18217;SDS011;9234;49.344;11.120;2023-02-24T01:12:11;20.17;;;16.48;;
18217;SDS011;9234;49.344;11.120;2023-02-24T01:14:57;25.60;;;16.35;;
18217;SDS011;9234;49.344;11.120;2023-02-24T01:17:28;21.13;;;15.65;;
18217;SDS011;9234;49.344;11.120;2023-02-24T01:19:56;20.67;;;15.63;;
18217;SDS011;9234;49.344;11.120;2023-02-24T01:22:26;17.88;;;13.43;;
18217;SDS011;9234;49.344;11.120;2023-02-24T01:24:54;21.63;;;14.63;;
18217;SDS011;9234;49.344;11.120;2023-02-24T01:27:24;16.95;;;13.55;;
18217;SDS011;9234;49.344;11.120;2023-02-24T01:29:52;18.47;;;14.07;;
18217;SDS011;9234;49.344;11.120;2023-02-24T01:32:20;18.87;;;13.43;;
18217;SDS011;9234;49.344;11.120;2023-02-24T01:34:50;18.93;;;13.80;;
18217;SDS011;9234;49.344;11.120;2023-02-24T01:37:19;16.25;;;11.82;;
18217;SDS011;9234;49.344;11.120;2023-02-24T01:39:49;14.57;;;12.37;;
18217;SDS011;9234;49.344;11.120;2023-02-24T01:42:19;16.00;;;13.30;;
18217;SDS011;9234;49.344;11.120;2023-02-24T01:45:03;15.43;;;12.32;;
18217;SDS011;9234;49.344;11.120;2023-02-24T01:47:39;17.67;;;13.07;;
18217;SDS011;9234;49.344;11.120;2023-02-24T01:50:12;18.10;;;12.93;;
18217;SDS011;9234;49.344;11.120;2023-02-24T01:52:44;14.90;;;12.32;;
18217;SDS011;9234;49.344;11.120;2023-02-24T01:55:17;16.17;;;12.57;;
18217;SDS011;9234;49.344;11.120;2023-02-24T01:57:50;17.63;;;12.23;;
18217;SDS011;9234;49.344;11.120;2023-02-24T02:00:22;18.50;;;13.43;;
18217;SDS011;9234;49.344;11.120;2023-02-24T02:03:08;18.00;;;14.18;;
18217;SDS011;9234;49.344;11.120;2023-02-24T02:05:45;20.42;;;14.90;;
18217;SDS011;9234;49.344;11.120;2023-02-24T02:08:14;19.52;;;15.48;;
18217;SDS011;9234;49.344;11.120;2023-02-24T02:10:47;20.02;;;15.85;;
18217;SDS011;9234;49.344;11.120;2023-02-24T02:13:18;21.27;;;15.93;;
18217;SDS011;9234;49.344;11.120;2023-02-24T02:15:51;23.83;;;16.65;;
18217;SDS011;9234;49.344;11.120;2023-02-24T02:18:33;22.65;;;15.77;;
18217;SDS011;9234;49.344;11.120;2023-02-24T02:24:38;19.93;;;14.90;;
18217;SDS011;9234;49.344;11.120;2023-02-24T02:34:15;17.20;;;12.87;;
18217;SDS011;9234;49.344;11.120;2023-02-24T02:36:58;18.42;;;13.43;;
18217;SDS011;9234;49.344;11.120;2023-02-24T02:39:36;19.83;;;14.75;;
18217;SDS011;9234;49.344;11.120;2023-02-24T02:42:20;18.38;;;13.98;;
18217;SDS011;9234;49.344;11.120;2023-02-24T02:44:57;20.02;;;13.48;;
18217;SDS011;9234;49.344;11.120;2023-02-24T02:47:36;23.17;;;14.63;;
18217;SDS011;9234;49.344;11.120;2023-02-24T02:50:17;21.63;;;14.40;;
18217;SDS011;9234;49.344;11.120;2023-02-24T02:52:53;19.38;;;14.50;;
18217;SDS011;9234;49.344;11.120;2023-02-24T02:55:27;20.38;;;13.70;;
18217;SDS011;9234;49.344;11.120;2023-02-24T02:58:04;22.57;;;14.37;;
18217;SDS011;9234;49.344;11.120;2023-02-24T03:00:41;19.77;;;14.27;;
18217;SDS011;9234;49.344;11.120;2023-02-24T03:03:24;19.97;;;15.00;;
18217;SDS011;9234;49.344;11.120;2023-02-24T03:05:58;20.58;;;13.68;;
18217;SDS011;9234;49.344;11.120;2023-02-24T03:08:33;20.53;;;15.60;;
18217;SDS011;9234;49.344;11.120;2023-02-24T03:11:06;22.53;;;15.83;;
18217;SDS011;9234;49.344;11.120;2023-02-24T03:13:41;26.88;;;16.92;;
18217;SDS011;9234;49.344;11.120;2023-02-24T03:16:15;24.58;;;17.75;;
18217;SDS011;9234;49.344;11.120;2023-02-24T03:18:47;26.33;;;18.10;;
18217;SDS011;9234;49.344;11.120;2023-02-24T03:21:25;27.73;;;18.50;;
18217;SDS011;9234;49.344;11.120;2023-02-24T03:23:59;29.90;;;17.33;;
18217;SDS011;9234;49.344;11.120;2023-02-24T03:26:35;29.57;;;19.07;;
18217;SDS011;9234;49.344;11.120;2023-02-24T03:29:12;31.45;;;20.67;;
18217;SDS011;9234;49.344;11.120;2023-02-24T03:31:49;30.67;;;19.10;;
18217;SDS011;9234;49.344;11.120;2023-02-24T03:34:26;30.20;;;20.08;;
18217;SDS011;9234;49.344;11.120;2023-02-24T03:37:07;30.58;;;20.13;;
18217;SDS011;9234;49.344;11.120;2023-02-24T03:39:36;28.48;;;18.98;;
18217;SDS011;9234;49.344;11.120;2023-02-24T03:42:15;27.80;;;19.00;;
18217;SDS011;9234;49.344;11.120;2023-02-24T03:44:46;27.30;;;19.43;;
18217;SDS011;9234;49.344;11.120;2023-02-24T03:47:16;29.63;;;18.95;;
18217;SDS011;9234;49.344;11.120;2023-02-24T03:49:46;25.50;;;18.07;;
18217;SDS011;9234;49.344;11.120;2023-02-24T03:52:21;24.73;;;18.57;;
18217;SDS011;9234;49.344;11.120;2023-02-24T03:55:10;29.70;;;18.40;;
18217;SDS011;9234;49.344;11.120;2023-02-24T03:57:58;27.00;;;18.60;;
18217;SDS011;9234;49.344;11.120;2023-02-24T04:00:44;33.15;;;20.40;;
18217;SDS011;9234;49.344;11.120;2023-02-24T04:03:26;28.67;;;19.87;;
18217;SDS011;9234;49.344;11.120;2023-02-24T04:06:15;28.33;;;19.20;;
18217;SDS011;9234;49.344;11.120;2023-02-24T04:08:57;26.43;;;19.53;;
18217;SDS011;9234;49.344;11.120;2023-02-24T04:11:49;27.13;;;18.60;;
18217;SDS011;9234;49.344;11.120;2023-02-24T04:14:26;23.88;;;17.20;;
18217;SDS011;9234;49.344;11.120;2023-02-24T04:17:05;25.27;;;16.77;;
18217;SDS011;9234;49.344;11.120;2023-02-24T04:19:45;27.30;;;17.57;;
18217;SDS011;9234;49.344;11.120;2023-02-24T04:22:21;26.73;;;17.60;;
18217;SDS011;9234;49.344;11.120;2023-02-24T04:24:55;28.38;;;19.00;;
18217;SDS011;9234;49.344;11.120;2023-02-24T04:27:28;36.17;;;21.73;;
18217;SDS011;9234;49.344;11.120;2023-02-24T04:30:09;41.72;;;25.45;;
18217;SDS011;9234;49.344;11.120;2023-02-24T04:32:40;37.93;;;23.60;;
18217;SDS011;9234;49.344;11.120;2023-02-24T04:35:11;40.28;;;25.35;;
18217;SDS011;9234;49.344;11.120;2023-02-24T04:37:46;47.53;;;27.48;;
18217;SDS011;9234;49.344;11.120;2023-02-24T04:40:17;36.77;;;23.37;;
18217;SDS011;9234;49.344;11.120;2023-02-24T04:42:48;36.72;;;24.17;;
18217;SDS011;9234;49.344;11.120;2023-02-24T04:45:18;35.60;;;23.08;;
18217;SDS011;9234;49.344;11.120;2023-02-24T04:47:49;33.17;;;22.13;;
18217;SDS011;9234;49.344;11.120;2023-02-24T04:50:22;37.20;;;21.92;;
18217;SDS011;9234;49.344;11.120;2023-02-24T04:52:52;34.35;;;22.75;;
18217;SDS011;9234;49.344;11.120;2023-02-24T04:55:24;36.60;;;23.53;;
18217;SDS011;9234;49.344;11.120;2023-02-24T04:57:58;41.10;;;23.67;;
18217;SDS011;9234;49.344;11.120;2023-02-24T05:00:28;34.83;;;22.20;;
18217;SDS011;9234;49.344;11.120;2023-02-24T05:03:01;34.67;;;23.27;;
18217;SDS011;9234;49.344;11.120;2023-02-24T05:05:31;40.63;;;23.92;;
18217;SDS011;9234;49.344;11.120;2023-02-24T05:08:01;35.55;;;22.13;;
18217;SDS011;9234;49.344;11.120;2023-02-24T05:10:35;34.53;;;20.27;;
18217;SDS011;9234;49.344;11.120;2023-02-24T05:13:06;32.03;;;22.50;;
18217;SDS011;9234;49.344;11.120;2023-02-24T05:15:37;34.37;;;23.43;;
18217;SDS011;9234;49.344;11.120;2023-02-24T05:18:09;35.28;;;22.90;;
18217;SDS011;9234;49.344;11.120;2023-02-24T05:20:43;37.03;;;22.83;;
18217;SDS011;9234;49.344;11.120;2023-02-24T05:23:33;42.13;;;25.15;;
18217;SDS011;9234;49.344;11.120;2023-02-24T05:26:07;38.70;;;25.30;;
18217;SDS011;9234;49.344;11.120;2023-02-24T05:28:37;40.72;;;25.85;;
18217;SDS011;9234;49.344;11.120;2023-02-24T05:31:08;35.90;;;23.57;;
18217;SDS011;9234;49.344;11.120;2023-02-24T05:33:40;37.30;;;25.20;;
18217;SDS011;9234;49.344;11.120;2023-02-24T05:36:11;37.27;;;25.50;;
18217;SDS011;9234;49.344;11.120;2023-02-24T05:38:42;39.67;;;24.88;;
18217;SDS011;9234;49.344;11.120;2023-02-24T05:41:15;39.27;;;24.50;;
18217;SDS011;9234;49.344;11.120;2023-02-24T05:43:46;37.83;;;25.13;;
18217;SDS011;9234;49.344;11.120;2023-02-24T05:46:18;36.63;;;23.08;;
18217;SDS011;9234;49.344;11.120;2023-02-24T05:48:53;44.08;;;25.60;;
18217;SDS011;9234;49.344;11.120;2023-02-24T05:51:23;39.80;;;24.77;;
18217;SDS011;9234;49.344;11.120;2023-02-24T05:53:52;39.97;;;24.13;;
18217;SDS011;9234;49.344;11.120;2023-02-24T05:56:23;39.63;;;24.07;;
18217;SDS011;9234;49.344;11.120;2023-02-24T05:58:52;42.87;;;25.83;;
18217;SDS011;9234;49.344;11.120;2023-02-24T06:01:27;38.00;;;24.25;;
18217;SDS011;9234;49.344;11.120;2023-02-24T06:03:57;42.78;;;24.50;;
18217;SDS011;9234;49.344;11.120;2023-02-24T06:06:34;36.80;;;24.70;;
18217;SDS011;9234;49.344;11.120;2023-02-24T06:09:05;40.40;;;25.35;;
18217;SDS011;9234;49.344;11.120;2023-02-24T06:11:37;41.72;;;24.85;;
18217;SDS011;9234;49.344;11.120;2023-02-24T06:14:07;38.38;;;25.63;;
18217;SDS011;9234;49.344;11.120;2023-02-24T06:16:38;40.53;;;25.70;;
18217;SDS011;9234;49.344;11.120;2023-02-24T06:19:09;46.70;;;27.60;;
18217;SDS011;9234;49.344;11.120;2023-02-24T06:21:39;43.67;;;25.53;;
18217;SDS011;9234;49.344;11.120;2023-02-24T06:24:10;42.17;;;25.17;;
18217;SDS011;9234;49.344;11.120;2023-02-24T06:26:41;51.00;;;27.83;;
18217;SDS011;9234;49.344;11.120;2023-02-24T06:29:11;47.47;;;28.60;;
18217;SDS011;9234;49.344;11.120;2023-02-24T06:31:41;55.72;;;31.65;;
18217;SDS011;9234;49.344;11.120;2023-02-24T06:34:10;52.38;;;31.23;;
18217;SDS011;9234;49.344;11.120;2023-02-24T06:36:40;47.77;;;29.20;;
18217;SDS011;9234;49.344;11.120;2023-02-24T06:39:08;47.47;;;28.27;;
18217;SDS011;9234;49.344;11.120;2023-02-24T06:41:39;46.53;;;28.10;;
18217;SDS011;9234;49.344;11.120;2023-02-24T06:44:09;45.67;;;27.03;;
18217;SDS011;9234;49.344;11.120;2023-02-24T06:46:37;47.90;;;27.50;;
18217;SDS011;9234;49.344;11.120;2023-02-24T06:49:06;46.57;;;28.40;;
18217;SDS011;9234;49.344;11.120;2023-02-24T06:51:35;47.87;;;28.97;;
18217;SDS011;9234;49.344;11.120;2023-02-24T06:54:04;43.67;;;28.40;;
18217;SDS011;9234;49.344;11.120;2023-02-24T06:56:32;45.90;;;27.92;;
18217;SDS011;9234;49.344;11.120;2023-02-24T06:59:05;43.67;;;27.55;;
18217;SDS011;9234;49.344;11.120;2023-02-24T07:01:37;46.97;;;28.95;;
18217;SDS011;9234;49.344;11.120;2023-02-24T07:04:10;46.37;;;27.23;;
18217;SDS011;9234;49.344;11.120;2023-02-24T07:06:47;45.43;;;25.37;;
18217;SDS011;9234;49.344;11.120;2023-02-24T07:09:18;47.87;;;26.10;;
18217;SDS011;9234;49.344;11.120;2023-02-24T07:11:49;42.95;;;25.63;;
18217;SDS011;9234;49.344;11.120;2023-02-24T07:14:24;43.90;;;25.83;;
18217;SDS011;9234;49.344;11.120;2023-02-24T07:16:56;42.90;;;27.13;;
18217;SDS011;9234;49.344;11.120;2023-02-24T07:19:25;42.38;;;27.15;;
18217;SDS011;9234;49.344;11.120;2023-02-24T07:21:58;45.30;;;27.07;;
18217;SDS011;9234;49.344;11.120;2023-02-24T07:24:30;46.50;;;26.88;;
18217;SDS011;9234;49.344;11.120;2023-02-24T07:27:02;48.73;;;27.70;;
18217;SDS011;9234;49.344;11.120;2023-02-24T07:29:34;42.05;;;26.17;;
18217;SDS011;9234;49.344;11.120;2023-02-24T07:32:04;47.20;;;28.33;;
18217;SDS011;9234;49.344;11.120;2023-02-24T07:34:35;44.00;;;27.27;;
18217;SDS011;9234;49.344;11.120;2023-02-24T07:37:06;51.33;;;30.15;;
18217;SDS011;9234;49.344;11.120;2023-02-24T07:39:35;50.42;;;29.20;;
18217;SDS011;9234;49.344;11.120;2023-02-24T07:42:05;51.60;;;30.25;;
18217;SDS011;9234;49.344;11.120;2023-02-24T07:44:44;49.00;;;29.30;;
18217;SDS011;9234;49.344;11.120;2023-02-24T07:47:14;46.00;;;28.77;;
18217;SDS011;9234;49.344;11.120;2023-02-24T07:49:42;49.43;;;28.40;;
18217;SDS011;9234;49.344;11.120;2023-02-24T07:52:11;49.27;;;29.13;;
18217;SDS011;9234;49.344;11.120;2023-02-24T07:54:41;46.75;;;30.10;;
18217;SDS011;9234;49.344;11.120;2023-02-24T07:57:09;45.42;;;28.30;;
18217;SDS011;9234;49.344;11.120;2023-02-24T07:59:39;45.30;;;27.67;;
18217;SDS011;9234;49.344;11.120;2023-02-24T08:02:13;43.65;;;26.83;;
18217;SDS011;9234;49.344;11.120;2023-02-24T08:04:42;42.55;;;26.58;;
18217;SDS011;9234;49.344;11.120;2023-02-24T08:07:15;47.45;;;28.38;;
18217;SDS011;9234;49.344;11.120;2023-02-24T08:09:50;44.72;;;27.52;;
18217;SDS011;9234;49.344;11.120;2023-02-24T08:12:39;43.05;;;26.98;;
18217;SDS011;9234;49.344;11.120;2023-02-24T08:15:12;37.92;;;26.25;;
18217;SDS011;9234;49.344;11.120;2023-02-24T08:17:50;44.60;;;26.23;;
18217;SDS011;9234;49.344;11.120;2023-02-24T08:20:25;45.20;;;26.73;;
18217;SDS011;9234;49.344;11.120;2023-02-24T08:22:55;44.65;;;27.58;;
18217;SDS011;9234;49.344;11.120;2023-02-24T08:25:25;47.00;;;28.17;;
18217;SDS011;9234;49.344;11.120;2023-02-24T08:28:02;50.40;;;28.48;;
18217;SDS011;9234;49.344;11.120;2023-02-24T08:30:37;46.22;;;29.15;;
18217;SDS011;9234;49.344;11.120;2023-02-24T08:33:13;47.25;;;28.23;;
18217;SDS011;9234;49.344;11.120;2023-02-24T08:35:49;42.58;;;27.17;;
18217;SDS011;9234;49.344;11.120;2023-02-24T08:38:26;51.10;;;31.13;;
18217;SDS011;9234;49.344;11.120;2023-02-24T08:41:11;46.85;;;27.95;;
18217;SDS011;9234;49.344;11.120;2023-02-24T08:43:45;46.28;;;29.15;;
18217;SDS011;9234;49.344;11.120;2023-02-24T08:46:16;46.55;;;29.17;;
18217;SDS011;9234;49.344;11.120;2023-02-24T08:48:54;47.28;;;27.95;;
18217;SDS011;9234;49.344;11.120;2023-02-24T08:51:27;45.05;;;28.90;;
18217;SDS011;9234;49.344;11.120;2023-02-24T08:54:00;49.17;;;28.25;;
18217;SDS011;9234;49.344;11.120;2023-02-24T08:56:36;50.55;;;30.00;;
18217;SDS011;9234;49.344;11.120;2023-02-24T08:59:09;43.08;;;26.88;;
18217;SDS011;9234;49.344;11.120;2023-02-24T09:01:54;47.17;;;31.10;;
18217;SDS011;9234;49.344;11.120;2023-02-24T09:04:39;40.13;;;24.30;;
18217;SDS011;9234;49.344;11.120;2023-02-24T09:07:13;38.53;;;25.85;;
18217;SDS011;9234;49.344;11.120;2023-02-24T09:09:44;41.05;;;27.42;;
18217;SDS011;9234;49.344;11.120;2023-02-24T09:12:13;41.58;;;26.50;;
18217;SDS011;9234;49.344;11.120;2023-02-24T09:14:50;51.47;;;43.53;;
18217;SDS011;9234;49.344;11.120;2023-02-24T09:17:23;42.83;;;32.08;;
18217;SDS011;9234;49.344;11.120;2023-02-24T09:20:17;40.33;;;27.30;;
18217;SDS011;9234;49.344;11.120;2023-02-24T09:23:17;39.17;;;23.55;;
18217;SDS011;9234;49.344;11.120;2023-02-24T09:25:55;39.03;;;24.80;;
18217;SDS011;9234;49.344;11.120;2023-02-24T09:28:23;36.47;;;24.08;;
18217;SDS011;9234;49.344;11.120;2023-02-24T09:30:58;39.45;;;25.63;;
18217;SDS011;9234;49.344;11.120;2023-02-24T09:33:31;42.40;;;27.65;;
18217;SDS011;9234;49.344;11.120;2023-02-24T09:36:06;39.63;;;25.30;;
18217;SDS011;9234;49.344;11.120;2023-02-24T09:38:38;40.40;;;24.40;;
18217;SDS011;9234;49.344;11.120;2023-02-24T09:41:29;40.50;;;25.50;;
18217;SDS011;9234;49.344;11.120;2023-02-24T09:44:21;41.63;;;24.67;;
18217;SDS011;9234;49.344;11.120;2023-02-24T09:47:00;39.60;;;23.65;;
18217;SDS011;9234;49.344;11.120;2023-02-24T09:49:43;34.63;;;23.25;;
18217;SDS011;9234;49.344;11.120;2023-02-24T09:52:24;39.03;;;24.23;;
18217;SDS011;9234;49.344;11.120;2023-02-24T09:55:05;34.97;;;23.92;;
18217;SDS011;9234;49.344;11.120;2023-02-24T09:57:51;38.58;;;25.65;;
18217;SDS011;9234;49.344;11.120;2023-02-24T10:00:47;37.78;;;23.42;;
18217;SDS011;9234;49.344;11.120;2023-02-24T10:03:25;32.15;;;21.85;;
18217;SDS011;9234;49.344;11.120;2023-02-24T10:06:11;34.15;;;22.05;;
18217;SDS011;9234;49.344;11.120;2023-02-24T10:08:49;35.97;;;22.30;;
18217;SDS011;9234;49.344;11.120;2023-02-24T10:11:23;36.67;;;23.42;;
18217;SDS011;9234;49.344;11.120;2023-02-24T10:13:59;30.75;;;21.27;;
18217;SDS011;9234;49.344;11.120;2023-02-24T10:16:34;36.05;;;21.77;;
18217;SDS011;9234;49.344;11.120;2023-02-24T10:19:15;33.45;;;22.27;;
18217;SDS011;9234;49.344;11.120;2023-02-24T10:21:53;30.75;;;20.60;;
18217;SDS011;9234;49.344;11.120;2023-02-24T10:24:32;34.65;;;23.15;;
18217;SDS011;9234;49.344;11.120;2023-02-24T10:27:13;36.20;;;24.58;;
18217;SDS011;9234;49.344;11.120;2023-02-24T10:29:51;32.95;;;21.45;;
18217;SDS011;9234;49.344;11.120;2023-02-24T10:32:39;32.47;;;21.00;;
18217;SDS011;9234;49.344;11.120;2023-02-24T10:35:16;33.10;;;21.73;;
18217;SDS011;9234;49.344;11.120;2023-02-24T10:37:51;33.88;;;19.52;;
18217;SDS011;9234;49.344;11.120;2023-02-24T10:40:27;27.73;;;19.77;;
18217;SDS011;9234;49.344;11.120;2023-02-24T10:43:13;32.17;;;21.20;;
18217;SDS011;9234;49.344;11.120;2023-02-24T10:45:45;33.72;;;22.08;;
18217;SDS011;9234;49.344;11.120;2023-02-24T10:48:15;31.80;;;20.38;;
18217;SDS011;9234;49.344;11.120;2023-02-24T10:51:07;36.22;;;22.05;;
18217;SDS011;9234;49.344;11.120;2023-02-24T10:53:46;32.40;;;22.23;;
18217;SDS011;9234;49.344;11.120;2023-02-24T10:56:40;35.97;;;21.90;;
18217;SDS011;9234;49.344;11.120;2023-02-24T10:59:20;35.90;;;22.88;;
18217;SDS011;9234;49.344;11.120;2023-02-24T11:02:14;38.88;;;25.25;;
18217;SDS011;9234;49.344;11.120;2023-02-24T11:04:55;37.22;;;23.30;;
18217;SDS011;9234;49.344;11.120;2023-02-24T11:07:50;33.60;;;21.20;;
18217;SDS011;9234;49.344;11.120;2023-02-24T11:10:37;35.58;;;23.00;;
18217;SDS011;9234;49.344;11.120;2023-02-24T11:13:19;31.80;;;21.77;;
18217;SDS011;9234;49.344;11.120;2023-02-24T11:16:08;37.58;;;23.00;;
18217;SDS011;9234;49.344;11.120;2023-02-24T11:18:54;38.15;;;23.67;;
18217;SDS011;9234;49.344;11.120;2023-02-24T11:21:24;35.53;;;22.63;;
18217;SDS011;9234;49.344;11.120;2023-02-24T11:23:55;36.78;;;23.02;;
18217;SDS011;9234;49.344;11.120;2023-02-24T11:26:31;35.20;;;22.67;;
18217;SDS011;9234;49.344;11.120;2023-02-24T11:29:14;36.28;;;23.33;;
18217;SDS011;9234;49.344;11.120;2023-02-24T11:32:07;35.15;;;22.98;;
18217;SDS011;9234;49.344;11.120;2023-02-24T11:34:59;54.17;;;32.50;;
18217;SDS011;9234;49.344;11.120;2023-02-24T11:37:38;38.25;;;25.65;;
18217;SDS011;9234;49.344;11.120;2023-02-24T11:40:12;33.97;;;22.27;;
18217;SDS011;9234;49.344;11.120;2023-02-24T11:42:46;35.80;;;22.15;;
18217;SDS011;9234;49.344;11.120;2023-02-24T11:45:25;40.88;;;24.90;;
18217;SDS011;9234;49.344;11.120;2023-02-24T11:48:01;44.15;;;26.63;;
18217;SDS011;9234;49.344;11.120;2023-02-24T11:50:41;38.55;;;25.63;;
18217;SDS011;9234;49.344;11.120;2023-02-24T11:53:26;34.08;;;22.02;;
18217;SDS011;9234;49.344;11.120;2023-02-24T11:56:01;33.08;;;22.02;;
18217;SDS011;9234;49.344;11.120;2023-02-24T11:58:36;32.47;;;20.33;;
18217;SDS011;9234;49.344;11.120;2023-02-24T12:01:16;31.92;;;20.33;;
18217;SDS011;9234;49.344;11.120;2023-02-24T12:03:53;30.65;;;20.27;;
18217;SDS011;9234;49.344;11.120;2023-02-24T12:06:36;29.00;;;19.38;;
18217;SDS011;9234;49.344;11.120;2023-02-24T12:09:15;25.95;;;17.52;;
18217;SDS011;9234;49.344;11.120;2023-02-24T12:11:51;24.20;;;15.40;;
18217;SDS011;9234;49.344;11.120;2023-02-24T12:14:31;29.42;;;17.83;;
18217;SDS011;9234;49.344;11.120;2023-02-24T12:17:14;26.20;;;16.85;;
18217;SDS011;9234;49.344;11.120;2023-02-24T12:19:52;26.02;;;16.58;;
18217;SDS011;9234;49.344;11.120;2023-02-24T12:22:32;22.00;;;15.90;;
18217;SDS011;9234;49.344;11.120;2023-02-24T12:25:11;24.40;;;16.10;;
18217;SDS011;9234;49.344;11.120;2023-02-24T12:27:45;27.75;;;16.45;;
18217;SDS011;9234;49.344;11.120;2023-02-24T12:30:39;22.55;;;14.18;;
18217;SDS011;9234;49.344;11.120;2023-02-24T12:33:29;23.13;;;15.55;;
18217;SDS011;9234;49.344;11.120;2023-02-24T12:36:18;27.00;;;16.23;;
18217;SDS011;9234;49.344;11.120;2023-02-24T12:39:12;28.48;;;17.50;;
18217;SDS011;9234;49.344;11.120;2023-02-24T12:41:51;26.90;;;15.95;;
18217;SDS011;9234;49.344;11.120;2023-02-24T12:44:37;26.50;;;16.05;;
18217;SDS011;9234;49.344;11.120;2023-02-24T12:47:15;31.17;;;22.27;;
18217;SDS011;9234;49.344;11.120;2023-02-24T12:49:57;32.65;;;22.13;;
18217;SDS011;9234;49.344;11.120;2023-02-24T12:52:44;26.40;;;16.20;;
18217;SDS011;9234;49.344;11.120;2023-02-24T12:55:33;29.52;;;18.50;;
18217;SDS011;9234;49.344;11.120;2023-02-24T12:58:14;31.27;;;23.15;;
18217;SDS011;9234;49.344;11.120;2023-02-24T13:00:53;54.75;;;42.38;;
18217;SDS011;9234;49.344;11.120;2023-02-24T13:06:39;42.20;;;30.88;;
18217;SDS011;9234;49.344;11.120;2023-02-24T13:09:21;25.55;;;15.32;;
18217;SDS011;9234;49.344;11.120;2023-02-24T13:12:00;30.08;;;20.27;;
18217;SDS011;9234;49.344;11.120;2023-02-24T13:14:39;33.88;;;25.88;;
18217;SDS011;9234;49.344;11.120;2023-02-24T13:17:17;27.30;;;18.75;;
18217;SDS011;9234;49.344;11.120;2023-02-24T13:19:50;28.83;;;16.00;;
18217;SDS011;9234;49.344;11.120;2023-02-24T13:22:24;28.48;;;16.30;;
18217;SDS011;9234;49.344;11.120;2023-02-24T13:25:00;25.42;;;14.90;;
18217;SDS011;9234;49.344;11.120;2023-02-24T13:27:52;26.02;;;16.45;;
18217;SDS011;9234;49.344;11.120;2023-02-24T13:30:26;25.88;;;15.65;;
18217;SDS011;9234;49.344;11.120;2023-02-24T13:33:02;21.88;;;13.43;;
18217;SDS011;9234;49.344;11.120;2023-02-24T13:35:47;32.92;;;19.92;;
18217;SDS011;9234;49.344;11.120;2023-02-24T13:38:23;63.03;;;36.63;;
18217;SDS011;9234;49.344;11.120;2023-02-24T13:41:06;24.40;;;14.63;;
18217;SDS011;9234;49.344;11.120;2023-02-24T13:43:52;23.08;;;14.40;;
18217;SDS011;9234;49.344;11.120;2023-02-24T13:46:23;25.83;;;15.45;;
18217;SDS011;9234;49.344;11.120;2023-02-24T13:49:02;29.10;;;15.40;;
18217;SDS011;9234;49.344;11.120;2023-02-24T13:51:57;116.30;;;63.13;;
18217;SDS011;9234;49.344;11.120;2023-02-24T13:58:01;24.48;;;13.32;;
18217;SDS011;9234;49.344;11.120;2023-02-24T14:00:58;19.55;;;13.00;;
18217;SDS011;9234;49.344;11.120;2023-02-24T14:03:40;21.92;;;12.63;;
18217;SDS011;9234;49.344;11.120;2023-02-24T14:06:15;23.63;;;12.98;;
18217;SDS011;9234;49.344;11.120;2023-02-24T14:08:51;24.92;;;13.50;;
18217;SDS011;9234;49.344;11.120;2023-02-24T14:11:24;22.17;;;12.10;;
18217;SDS011;9234;49.344;11.120;2023-02-24T14:13:57;53.78;;;42.38;;
18217;SDS011;9234;49.344;11.120;2023-02-24T14:16:28;22.75;;;12.50;;
18217;SDS011;9234;49.344;11.120;2023-02-24T14:19:08;22.10;;;11.05;;
18217;SDS011;9234;49.344;11.120;2023-02-24T14:21:46;45.50;;;33.05;;
18217;SDS011;9234;49.344;11.120;2023-02-24T14:24:18;21.67;;;12.45;;
18217;SDS011;9234;49.344;11.120;2023-02-24T14:26:48;23.67;;;14.30;;
18217;SDS011;9234;49.344;11.120;2023-02-24T14:29:21;17.92;;;10.80;;
18217;SDS011;9234;49.344;11.120;2023-02-24T14:31:53;20.60;;;11.18;;
18217;SDS011;9234;49.344;11.120;2023-02-24T14:34:25;19.58;;;13.00;;
18217;SDS011;9234;49.344;11.120;2023-02-24T14:36:56;20.83;;;12.65;;
18217;SDS011;9234;49.344;11.120;2023-02-24T14:39:29;18.20;;;10.27;;
18217;SDS011;9234;49.344;11.120;2023-02-24T14:42:03;14.65;;;10.00;;
18217;SDS011;9234;49.344;11.120;2023-02-24T14:44:43;19.02;;;9.55;;
18217;SDS011;9234;49.344;11.120;2023-02-24T14:47:14;16.17;;;9.05;;
18217;SDS011;9234;49.344;11.120;2023-02-24T14:49:52;14.57;;;8.57;;
18217;SDS011;9234;49.344;11.120;2023-02-24T14:52:26;17.10;;;10.95;;
18217;SDS011;9234;49.344;11.120;2023-02-24T14:55:02;12.00;;;8.93;;
18217;SDS011;9234;49.344;11.120;2023-02-24T14:57:39;13.90;;;8.95;;
18217;SDS011;9234;49.344;11.120;2023-02-24T15:00:14;13.18;;;8.10;;
18217;SDS011;9234;49.344;11.120;2023-02-24T15:02:52;16.58;;;8.05;;
18217;SDS011;9234;49.344;11.120;2023-02-24T15:05:29;18.60;;;8.45;;
18217;SDS011;9234;49.344;11.120;2023-02-24T15:07:59;16.95;;;10.13;;
18217;SDS011;9234;49.344;11.120;2023-02-24T15:10:29;13.30;;;8.70;;
18217;SDS011;9234;49.344;11.120;2023-02-24T15:12:59;13.45;;;9.38;;
18217;SDS011;9234;49.344;11.120;2023-02-24T15:15:40;14.50;;;10.70;;
18217;SDS011;9234;49.344;11.120;2023-02-24T15:18:09;25.50;;;18.83;;
18217;SDS011;9234;49.344;11.120;2023-02-24T15:20:58;13.75;;;7.53;;
18217;SDS011;9234;49.344;11.120;2023-02-24T15:23:28;14.48;;;8.73;;
18217;SDS011;9234;49.344;11.120;2023-02-24T15:25:59;46.65;;;25.55;;
18217;SDS011;9234;49.344;11.120;2023-02-24T15:28:30;14.18;;;7.70;;